1K1

Lloyd Stearman Field Airport

Benton, Kansas, USA
METAR K1K1 212235Z AUTO 03004KT 10SM CLR 33/18 A3000 RMK AO2 T03280181
Observed Flight Rules
Jul-21 @ 22:35 UTC (33 minutes ago) Visual Flight Rules
Wind Visibility Clouds
30° at 4 knots 10 miles
  • Clear skies
Temperatures Readings
Current 33°C / 91°F
Dewpoint 18°C / 64°F
Humidity 41%
Altimeter 30" Hg
Pressure 1016 hPa
Elevation 416
METAR K1K1 212235Z AUTO 03004KT 10SM CLR 33/18 A3000 RMK AO2 T03280181
Observed Flight Rules
Jul-21 @ 22:35 UTC
(33 minutes ago)
VFR
Wind Visibility
30° at 4 knots 10 miles
Clouds
  • Clear skies
Temperature Dewpoint
33°C / 91°F 18°C / 64°F
Humidity Altimeter Pressure
41% 30" Hg 1016 hPa